sensor_id;sensor_type;location;lat;lon;timestamp;P1;durP1;ratioP1;P2;durP2;ratioP2
64061;SDS011;50308;47.438;-1.528;2023-07-13T00:00:19;4.45;;;1.33;;
64061;SDS011;50308;47.438;-1.528;2023-07-13T00:02:45;8.27;;;1.80;;
64061;SDS011;50308;47.438;-1.528;2023-07-13T00:05:11;5.18;;;1.55;;
64061;SDS011;50308;47.438;-1.528;2023-07-13T00:07:36;2.65;;;1.35;;
64061;SDS011;50308;47.438;-1.528;2023-07-13T00:10:03;4.75;;;1.58;;
64061;SDS011;50308;47.438;-1.528;2023-07-13T00:12:36;3.58;;;1.30;;
64061;SDS011;50308;47.438;-1.528;2023-07-13T00:15:05;3.47;;;1.27;;
64061;SDS011;50308;47.438;-1.528;2023-07-13T00:17:34;2.15;;;1.20;;
64061;SDS011;50308;47.438;-1.528;2023-07-13T00:20:00;4.13;;;1.38;;
64061;SDS011;50308;47.438;-1.528;2023-07-13T00:22:26;3.80;;;1.60;;
64061;SDS011;50308;47.438;-1.528;2023-07-13T00:24:52;4.30;;;1.75;;
64061;SDS011;50308;47.438;-1.528;2023-07-13T00:27:20;2.72;;;1.40;;
64061;SDS011;50308;47.438;-1.528;2023-07-13T00:29:46;3.95;;;1.70;;
64061;SDS011;50308;47.438;-1.528;2023-07-13T00:32:12;3.08;;;1.48;;
64061;SDS011;50308;47.438;-1.528;2023-07-13T00:34:38;3.30;;;1.40;;
64061;SDS011;50308;47.438;-1.528;2023-07-13T00:37:05;4.75;;;1.55;;
64061;SDS011;50308;47.438;-1.528;2023-07-13T00:39:32;3.15;;;1.20;;
64061;SDS011;50308;47.438;-1.528;2023-07-13T00:41:59;3.67;;;1.52;;
64061;SDS011;50308;47.438;-1.528;2023-07-13T00:44:25;2.63;;;1.30;;
64061;SDS011;50308;47.438;-1.528;2023-07-13T00:46:51;5.95;;;2.22;;
64061;SDS011;50308;47.438;-1.528;2023-07-13T00:49:18;3.63;;;1.73;;
64061;SDS011;50308;47.438;-1.528;2023-07-13T00:51:50;3.30;;;1.45;;
64061;SDS011;50308;47.438;-1.528;2023-07-13T00:54:23;2.30;;;1.60;;
64061;SDS011;50308;47.438;-1.528;2023-07-13T00:56:53;4.60;;;1.52;;
64061;SDS011;50308;47.438;-1.528;2023-07-13T00:59:22;4.60;;;1.52;;
64061;SDS011;50308;47.438;-1.528;2023-07-13T01:01:49;4.57;;;1.35;;
64061;SDS011;50308;47.438;-1.528;2023-07-13T01:04:15;3.03;;;1.25;;
64061;SDS011;50308;47.438;-1.528;2023-07-13T01:06:42;4.95;;;1.80;;
64061;SDS011;50308;47.438;-1.528;2023-07-13T01:09:09;2.63;;;1.27;;
64061;SDS011;50308;47.438;-1.528;2023-07-13T01:11:36;3.70;;;1.40;;
64061;SDS011;50308;47.438;-1.528;2023-07-13T01:14:03;5.88;;;1.58;;
64061;SDS011;50308;47.438;-1.528;2023-07-13T01:16:30;2.30;;;1.40;;
64061;SDS011;50308;47.438;-1.528;2023-07-13T01:18:57;4.10;;;1.58;;
64061;SDS011;50308;47.438;-1.528;2023-07-13T01:21:26;2.78;;;1.50;;
64061;SDS011;50308;47.438;-1.528;2023-07-13T01:23:53;6.47;;;2.20;;
64061;SDS011;50308;47.438;-1.528;2023-07-13T01:26:19;4.40;;;1.35;;
64061;SDS011;50308;47.438;-1.528;2023-07-13T01:28:44;4.20;;;1.38;;
64061;SDS011;50308;47.438;-1.528;2023-07-13T01:31:11;2.75;;;1.42;;
64061;SDS011;50308;47.438;-1.528;2023-07-13T01:33:38;3.47;;;1.60;;
64061;SDS011;50308;47.438;-1.528;2023-07-13T01:36:08;2.17;;;1.35;;
64061;SDS011;50308;47.438;-1.528;2023-07-13T01:38:35;4.63;;;1.40;;
64061;SDS011;50308;47.438;-1.528;2023-07-13T01:41:01;3.45;;;1.77;;
64061;SDS011;50308;47.438;-1.528;2023-07-13T01:43:28;5.70;;;1.70;;
64061;SDS011;50308;47.438;-1.528;2023-07-13T01:45:54;2.85;;;1.30;;
64061;SDS011;50308;47.438;-1.528;2023-07-13T01:48:19;2.45;;;1.50;;
64061;SDS011;50308;47.438;-1.528;2023-07-13T01:50:45;3.25;;;1.70;;
64061;SDS011;50308;47.438;-1.528;2023-07-13T01:53:12;4.75;;;1.42;;
64061;SDS011;50308;47.438;-1.528;2023-07-13T01:55:38;2.95;;;1.30;;
64061;SDS011;50308;47.438;-1.528;2023-07-13T01:58:03;2.00;;;1.50;;
64061;SDS011;50308;47.438;-1.528;2023-07-13T02:00:29;3.47;;;1.65;;
64061;SDS011;50308;47.438;-1.528;2023-07-13T02:02:55;2.70;;;1.35;;
64061;SDS011;50308;47.438;-1.528;2023-07-13T02:05:21;6.07;;;1.60;;
64061;SDS011;50308;47.438;-1.528;2023-07-13T02:07:47;2.85;;;1.17;;
64061;SDS011;50308;47.438;-1.528;2023-07-13T02:10:13;5.22;;;1.90;;
64061;SDS011;50308;47.438;-1.528;2023-07-13T02:12:39;3.63;;;1.95;;
64061;SDS011;50308;47.438;-1.528;2023-07-13T02:15:05;4.85;;;1.85;;
64061;SDS011;50308;47.438;-1.528;2023-07-13T02:17:31;3.03;;;1.50;;
64061;SDS011;50308;47.438;-1.528;2023-07-13T02:19:57;2.88;;;1.60;;
64061;SDS011;50308;47.438;-1.528;2023-07-13T02:22:23;4.68;;;1.48;;
64061;SDS011;50308;47.438;-1.528;2023-07-13T02:24:49;4.53;;;1.50;;
64061;SDS011;50308;47.438;-1.528;2023-07-13T02:27:15;2.03;;;1.30;;
64061;SDS011;50308;47.438;-1.528;2023-07-13T02:29:41;4.15;;;1.50;;
64061;SDS011;50308;47.438;-1.528;2023-07-13T02:32:07;3.40;;;1.83;;
64061;SDS011;50308;47.438;-1.528;2023-07-13T02:34:33;3.08;;;1.60;;
64061;SDS011;50308;47.438;-1.528;2023-07-13T02:36:59;5.18;;;1.60;;
64061;SDS011;50308;47.438;-1.528;2023-07-13T02:39:25;3.15;;;1.38;;
64061;SDS011;50308;47.438;-1.528;2023-07-13T02:41:50;3.22;;;1.30;;
64061;SDS011;50308;47.438;-1.528;2023-07-13T02:44:16;2.63;;;1.30;;
64061;SDS011;50308;47.438;-1.528;2023-07-13T02:46:42;2.50;;;1.30;;
64061;SDS011;50308;47.438;-1.528;2023-07-13T02:49:07;2.47;;;1.70;;
64061;SDS011;50308;47.438;-1.528;2023-07-13T02:51:33;3.10;;;1.58;;
64061;SDS011;50308;47.438;-1.528;2023-07-13T02:54:00;4.80;;;1.25;;
64061;SDS011;50308;47.438;-1.528;2023-07-13T02:56:27;4.32;;;1.63;;
64061;SDS011;50308;47.438;-1.528;2023-07-13T02:58:54;2.75;;;1.92;;
64061;SDS011;50308;47.438;-1.528;2023-07-13T03:01:20;3.88;;;1.40;;
64061;SDS011;50308;47.438;-1.528;2023-07-13T03:03:46;2.83;;;1.35;;
64061;SDS011;50308;47.438;-1.528;2023-07-13T03:06:13;4.13;;;1.65;;
64061;SDS011;50308;47.438;-1.528;2023-07-13T03:08:39;4.47;;;1.70;;
64061;SDS011;50308;47.438;-1.528;2023-07-13T03:11:07;4.68;;;1.27;;
64061;SDS011;50308;47.438;-1.528;2023-07-13T03:13:36;2.97;;;1.27;;
64061;SDS011;50308;47.438;-1.528;2023-07-13T03:16:02;3.80;;;1.33;;
64061;SDS011;50308;47.438;-1.528;2023-07-13T03:18:28;3.08;;;1.40;;
64061;SDS011;50308;47.438;-1.528;2023-07-13T03:20:54;3.03;;;1.67;;
64061;SDS011;50308;47.438;-1.528;2023-07-13T03:23:21;3.45;;;1.40;;
64061;SDS011;50308;47.438;-1.528;2023-07-13T03:25:47;2.92;;;1.17;;
64061;SDS011;50308;47.438;-1.528;2023-07-13T03:28:13;2.38;;;1.40;;
64061;SDS011;50308;47.438;-1.528;2023-07-13T03:30:40;1.95;;;1.30;;
64061;SDS011;50308;47.438;-1.528;2023-07-13T03:33:06;4.13;;;1.67;;
64061;SDS011;50308;47.438;-1.528;2023-07-13T03:35:32;2.88;;;1.70;;
64061;SDS011;50308;47.438;-1.528;2023-07-13T03:37:59;4.50;;;1.40;;
64061;SDS011;50308;47.438;-1.528;2023-07-13T03:40:25;3.75;;;1.73;;
64061;SDS011;50308;47.438;-1.528;2023-07-13T03:42:54;2.33;;;1.45;;
64061;SDS011;50308;47.438;-1.528;2023-07-13T03:45:19;4.10;;;1.63;;
64061;SDS011;50308;47.438;-1.528;2023-07-13T03:47:45;4.05;;;2.15;;
64061;SDS011;50308;47.438;-1.528;2023-07-13T03:50:11;2.22;;;1.55;;
64061;SDS011;50308;47.438;-1.528;2023-07-13T03:52:37;3.97;;;1.52;;
64061;SDS011;50308;47.438;-1.528;2023-07-13T03:55:02;3.53;;;1.67;;
64061;SDS011;50308;47.438;-1.528;2023-07-13T03:57:28;1.70;;;1.30;;
64061;SDS011;50308;47.438;-1.528;2023-07-13T03:59:54;2.38;;;1.52;;
64061;SDS011;50308;47.438;-1.528;2023-07-13T04:02:20;2.45;;;2.20;;
64061;SDS011;50308;47.438;-1.528;2023-07-13T04:04:45;2.38;;;1.30;;
64061;SDS011;50308;47.438;-1.528;2023-07-13T04:07:11;4.35;;;1.48;;
64061;SDS011;50308;47.438;-1.528;2023-07-13T04:09:37;1.70;;;1.35;;
64061;SDS011;50308;47.438;-1.528;2023-07-13T04:12:03;4.28;;;1.42;;
64061;SDS011;50308;47.438;-1.528;2023-07-13T04:14:29;2.63;;;1.30;;
64061;SDS011;50308;47.438;-1.528;2023-07-13T04:16:55;2.03;;;1.33;;
64061;SDS011;50308;47.438;-1.528;2023-07-13T04:19:21;3.88;;;1.80;;
64061;SDS011;50308;47.438;-1.528;2023-07-13T04:21:47;3.03;;;1.50;;
64061;SDS011;50308;47.438;-1.528;2023-07-13T04:24:13;3.90;;;1.60;;
64061;SDS011;50308;47.438;-1.528;2023-07-13T04:26:38;4.28;;;1.60;;
64061;SDS011;50308;47.438;-1.528;2023-07-13T04:29:05;2.33;;;1.50;;
64061;SDS011;50308;47.438;-1.528;2023-07-13T04:31:31;4.47;;;1.80;;
64061;SDS011;50308;47.438;-1.528;2023-07-13T04:33:57;4.40;;;1.83;;
64061;SDS011;50308;47.438;-1.528;2023-07-13T04:36:43;2.80;;;1.35;;
64061;SDS011;50308;47.438;-1.528;2023-07-13T04:39:09;5.55;;;1.70;;
64061;SDS011;50308;47.438;-1.528;2023-07-13T04:41:34;4.00;;;1.80;;
64061;SDS011;50308;47.438;-1.528;2023-07-13T04:44:00;1.70;;;1.30;;
64061;SDS011;50308;47.438;-1.528;2023-07-13T04:46:27;2.80;;;1.30;;
64061;SDS011;50308;47.438;-1.528;2023-07-13T04:48:53;4.38;;;2.08;;
64061;SDS011;50308;47.438;-1.528;2023-07-13T04:51:19;2.85;;;1.48;;
64061;SDS011;50308;47.438;-1.528;2023-07-13T04:53:45;3.55;;;1.70;;
64061;SDS011;50308;47.438;-1.528;2023-07-13T04:56:10;4.35;;;1.73;;
64061;SDS011;50308;47.438;-1.528;2023-07-13T04:58:36;5.20;;;1.80;;
64061;SDS011;50308;47.438;-1.528;2023-07-13T05:01:02;4.05;;;1.52;;
64061;SDS011;50308;47.438;-1.528;2023-07-13T05:03:30;3.67;;;1.75;;
64061;SDS011;50308;47.438;-1.528;2023-07-13T05:06:00;3.30;;;1.63;;
64061;SDS011;50308;47.438;-1.528;2023-07-13T05:08:28;2.65;;;1.95;;
64061;SDS011;50308;47.438;-1.528;2023-07-13T05:10:54;3.30;;;1.65;;
64061;SDS011;50308;47.438;-1.528;2023-07-13T05:13:20;6.28;;;2.40;;
64061;SDS011;50308;47.438;-1.528;2023-07-13T05:15:47;3.53;;;1.77;;
64061;SDS011;50308;47.438;-1.528;2023-07-13T05:18:21;2.70;;;1.77;;
64061;SDS011;50308;47.438;-1.528;2023-07-13T05:20:46;4.60;;;1.80;;
64061;SDS011;50308;47.438;-1.528;2023-07-13T05:23:12;4.93;;;1.88;;
64061;SDS011;50308;47.438;-1.528;2023-07-13T05:25:37;6.78;;;1.80;;
64061;SDS011;50308;47.438;-1.528;2023-07-13T05:28:03;3.97;;;2.10;;
64061;SDS011;50308;47.438;-1.528;2023-07-13T05:30:29;4.95;;;2.10;;
64061;SDS011;50308;47.438;-1.528;2023-07-13T05:32:55;4.38;;;1.58;;
64061;SDS011;50308;47.438;-1.528;2023-07-13T05:35:20;5.13;;;2.22;;
64061;SDS011;50308;47.438;-1.528;2023-07-13T05:37:46;4.60;;;1.90;;
64061;SDS011;50308;47.438;-1.528;2023-07-13T05:40:12;3.67;;;1.70;;
64061;SDS011;50308;47.438;-1.528;2023-07-13T05:42:38;4.75;;;1.88;;
64061;SDS011;50308;47.438;-1.528;2023-07-13T05:45:03;3.40;;;1.90;;
64061;SDS011;50308;47.438;-1.528;2023-07-13T05:47:30;6.30;;;1.80;;
64061;SDS011;50308;47.438;-1.528;2023-07-13T05:49:55;3.08;;;2.05;;
64061;SDS011;50308;47.438;-1.528;2023-07-13T05:52:21;3.10;;;1.95;;
64061;SDS011;50308;47.438;-1.528;2023-07-13T05:54:46;6.95;;;2.40;;
64061;SDS011;50308;47.438;-1.528;2023-07-13T05:57:12;5.07;;;1.70;;
64061;SDS011;50308;47.438;-1.528;2023-07-13T05:59:38;3.25;;;1.90;;
64061;SDS011;50308;47.438;-1.528;2023-07-13T06:02:03;1.80;;;1.48;;
64061;SDS011;50308;47.438;-1.528;2023-07-13T06:04:30;3.70;;;1.70;;
64061;SDS011;50308;47.438;-1.528;2023-07-13T06:06:55;3.63;;;2.10;;
64061;SDS011;50308;47.438;-1.528;2023-07-13T06:09:21;6.50;;;2.25;;
64061;SDS011;50308;47.438;-1.528;2023-07-13T06:11:47;3.30;;;1.90;;
64061;SDS011;50308;47.438;-1.528;2023-07-13T06:14:12;3.22;;;1.90;;
64061;SDS011;50308;47.438;-1.528;2023-07-13T06:16:39;4.53;;;1.88;;
64061;SDS011;50308;47.438;-1.528;2023-07-13T06:19:06;6.32;;;1.92;;
64061;SDS011;50308;47.438;-1.528;2023-07-13T06:21:31;3.85;;;2.42;;
64061;SDS011;50308;47.438;-1.528;2023-07-13T06:23:57;4.72;;;2.10;;
64061;SDS011;50308;47.438;-1.528;2023-07-13T06:26:23;3.22;;;1.90;;
64061;SDS011;50308;47.438;-1.528;2023-07-13T06:28:49;11.30;;;3.35;;
64061;SDS011;50308;47.438;-1.528;2023-07-13T06:31:15;3.28;;;2.60;;
64061;SDS011;50308;47.438;-1.528;2023-07-13T06:33:41;3.25;;;2.10;;
64061;SDS011;50308;47.438;-1.528;2023-07-13T06:36:07;4.40;;;1.88;;
64061;SDS011;50308;47.438;-1.528;2023-07-13T06:38:34;6.75;;;2.42;;
64061;SDS011;50308;47.438;-1.528;2023-07-13T06:41:00;5.43;;;2.13;;
64061;SDS011;50308;47.438;-1.528;2023-07-13T06:43:25;4.60;;;1.85;;
64061;SDS011;50308;47.438;-1.528;2023-07-13T06:45:54;4.43;;;2.05;;
64061;SDS011;50308;47.438;-1.528;2023-07-13T06:48:20;4.43;;;1.90;;
64061;SDS011;50308;47.438;-1.528;2023-07-13T06:50:47;5.88;;;2.80;;
64061;SDS011;50308;47.438;-1.528;2023-07-13T06:53:14;6.88;;;2.30;;
64061;SDS011;50308;47.438;-1.528;2023-07-13T06:55:40;6.68;;;2.05;;
64061;SDS011;50308;47.438;-1.528;2023-07-13T06:58:08;5.30;;;2.47;;
64061;SDS011;50308;47.438;-1.528;2023-07-13T07:00:34;6.68;;;2.97;;
64061;SDS011;50308;47.438;-1.528;2023-07-13T07:02:59;5.72;;;2.55;;
64061;SDS011;50308;47.438;-1.528;2023-07-13T07:05:25;5.13;;;2.17;;
64061;SDS011;50308;47.438;-1.528;2023-07-13T07:07:51;6.20;;;2.28;;
64061;SDS011;50308;47.438;-1.528;2023-07-13T07:10:20;4.70;;;2.30;;
64061;SDS011;50308;47.438;-1.528;2023-07-13T07:12:46;4.43;;;2.20;;
64061;SDS011;50308;47.438;-1.528;2023-07-13T07:15:12;4.63;;;2.30;;
64061;SDS011;50308;47.438;-1.528;2023-07-13T07:17:38;6.18;;;2.45;;
64061;SDS011;50308;47.438;-1.528;2023-07-13T07:20:04;5.38;;;2.10;;
64061;SDS011;50308;47.438;-1.528;2023-07-13T07:22:30;3.58;;;1.95;;
64061;SDS011;50308;47.438;-1.528;2023-07-13T07:24:57;8.15;;;2.92;;
64061;SDS011;50308;47.438;-1.528;2023-07-13T07:27:23;8.93;;;4.05;;
64061;SDS011;50308;47.438;-1.528;2023-07-13T07:29:49;5.60;;;2.30;;
64061;SDS011;50308;47.438;-1.528;2023-07-13T07:32:14;4.53;;;2.67;;
64061;SDS011;50308;47.438;-1.528;2023-07-13T07:34:40;6.82;;;2.28;;
64061;SDS011;50308;47.438;-1.528;2023-07-13T07:37:06;5.78;;;2.13;;
64061;SDS011;50308;47.438;-1.528;2023-07-13T07:39:32;5.53;;;2.00;;
64061;SDS011;50308;47.438;-1.528;2023-07-13T07:44:23;12.52;;;3.05;;
64061;SDS011;50308;47.438;-1.528;2023-07-13T07:46:49;8.05;;;2.67;;
64061;SDS011;50308;47.438;-1.528;2023-07-13T07:49:15;6.22;;;2.60;;
64061;SDS011;50308;47.438;-1.528;2023-07-13T07:51:41;6.05;;;2.03;;
64061;SDS011;50308;47.438;-1.528;2023-07-13T07:54:06;6.95;;;2.88;;
64061;SDS011;50308;47.438;-1.528;2023-07-13T07:56:32;6.30;;;2.30;;
64061;SDS011;50308;47.438;-1.528;2023-07-13T07:58:58;10.70;;;3.33;;
64061;SDS011;50308;47.438;-1.528;2023-07-13T08:01:24;8.48;;;3.03;;
64061;SDS011;50308;47.438;-1.528;2023-07-13T08:03:50;7.60;;;2.45;;
64061;SDS011;50308;47.438;-1.528;2023-07-13T08:06:16;12.50;;;2.75;;
64061;SDS011;50308;47.438;-1.528;2023-07-13T08:08:44;8.77;;;3.47;;
64061;SDS011;50308;47.438;-1.528;2023-07-13T08:11:10;8.50;;;2.50;;
64061;SDS011;50308;47.438;-1.528;2023-07-13T08:13:36;10.98;;;2.90;;
64061;SDS011;50308;47.438;-1.528;2023-07-13T08:16:03;8.48;;;3.20;;
64061;SDS011;50308;47.438;-1.528;2023-07-13T08:18:30;12.25;;;3.55;;
64061;SDS011;50308;47.438;-1.528;2023-07-13T08:20:56;8.63;;;2.67;;
64061;SDS011;50308;47.438;-1.528;2023-07-13T08:23:23;10.38;;;2.88;;
64061;SDS011;50308;47.438;-1.528;2023-07-13T08:25:50;6.90;;;3.10;;
64061;SDS011;50308;47.438;-1.528;2023-07-13T08:28:17;10.10;;;3.67;;
64061;SDS011;50308;47.438;-1.528;2023-07-13T08:30:43;8.75;;;2.97;;
64061;SDS011;50308;47.438;-1.528;2023-07-13T08:33:09;6.60;;;2.88;;
64061;SDS011;50308;47.438;-1.528;2023-07-13T08:35:35;10.23;;;3.35;;
64061;SDS011;50308;47.438;-1.528;2023-07-13T08:38:00;11.27;;;3.00;;
64061;SDS011;50308;47.438;-1.528;2023-07-13T08:40:27;7.22;;;2.50;;
64061;SDS011;50308;47.438;-1.528;2023-07-13T08:42:59;7.57;;;2.70;;
64061;SDS011;50308;47.438;-1.528;2023-07-13T08:45:37;9.05;;;2.97;;
64061;SDS011;50308;47.438;-1.528;2023-07-13T08:48:13;8.95;;;2.97;;
64061;SDS011;50308;47.438;-1.528;2023-07-13T08:50:44;9.50;;;2.78;;
64061;SDS011;50308;47.438;-1.528;2023-07-13T08:53:16;9.98;;;3.40;;
64061;SDS011;50308;47.438;-1.528;2023-07-13T08:55:43;7.95;;;3.13;;
64061;SDS011;50308;47.438;-1.528;2023-07-13T08:58:13;8.98;;;3.25;;
64061;SDS011;50308;47.438;-1.528;2023-07-13T09:00:43;8.50;;;2.70;;
64061;SDS011;50308;47.438;-1.528;2023-07-13T09:03:23;17.30;;;3.75;;
64061;SDS011;50308;47.438;-1.528;2023-07-13T09:05:54;5.47;;;2.50;;
64061;SDS011;50308;47.438;-1.528;2023-07-13T09:08:32;5.20;;;2.55;;
64061;SDS011;50308;47.438;-1.528;2023-07-13T09:16:22;6.15;;;2.67;;
64061;SDS011;50308;47.438;-1.528;2023-07-13T09:18:50;8.07;;;2.63;;
64061;SDS011;50308;47.438;-1.528;2023-07-13T09:21:27;8.75;;;3.33;;
64061;SDS011;50308;47.438;-1.528;2023-07-13T09:24:06;8.80;;;3.17;;
64061;SDS011;50308;47.438;-1.528;2023-07-13T09:26:51;5.70;;;2.50;;
64061;SDS011;50308;47.438;-1.528;2023-07-13T09:29:23;5.45;;;2.67;;
64061;SDS011;50308;47.438;-1.528;2023-07-13T09:31:54;4.50;;;2.17;;
64061;SDS011;50308;47.438;-1.528;2023-07-13T09:34:23;9.38;;;2.83;;
64061;SDS011;50308;47.438;-1.528;2023-07-13T09:36:50;3.75;;;2.55;;
64061;SDS011;50308;47.438;-1.528;2023-07-13T09:42:12;10.02;;;2.42;;
64061;SDS011;50308;47.438;-1.528;2023-07-13T09:47:16;6.72;;;2.30;;
64061;SDS011;50308;47.438;-1.528;2023-07-13T09:49:46;5.38;;;2.35;;
64061;SDS011;50308;47.438;-1.528;2023-07-13T09:52:14;4.82;;;1.90;;
64061;SDS011;50308;47.438;-1.528;2023-07-13T09:54:44;4.38;;;2.47;;
64061;SDS011;50308;47.438;-1.528;2023-07-13T09:57:23;5.40;;;2.53;;
64061;SDS011;50308;47.438;-1.528;2023-07-13T09:59:51;8.77;;;2.60;;
64061;SDS011;50308;47.438;-1.528;2023-07-13T10:07:18;4.70;;;1.65;;
64061;SDS011;50308;47.438;-1.528;2023-07-13T10:09:51;7.28;;;2.05;;
64061;SDS011;50308;47.438;-1.528;2023-07-13T10:12:20;4.93;;;1.95;;
64061;SDS011;50308;47.438;-1.528;2023-07-13T10:14:50;6.35;;;2.20;;
64061;SDS011;50308;47.438;-1.528;2023-07-13T10:17:21;3.45;;;2.00;;
64061;SDS011;50308;47.438;-1.528;2023-07-13T10:19:59;4.05;;;2.17;;
64061;SDS011;50308;47.438;-1.528;2023-07-13T10:22:36;6.60;;;1.60;;
64061;SDS011;50308;47.438;-1.528;2023-07-13T10:25:16;4.32;;;2.00;;
64061;SDS011;50308;47.438;-1.528;2023-07-13T10:27:44;5.43;;;2.15;;
64061;SDS011;50308;47.438;-1.528;2023-07-13T10:30:17;3.90;;;1.83;;
64061;SDS011;50308;47.438;-1.528;2023-07-13T10:32:48;4.43;;;1.60;;
64061;SDS011;50308;47.438;-1.528;2023-07-13T10:35:16;6.13;;;1.70;;
64061;SDS011;50308;47.438;-1.528;2023-07-13T10:41:14;2.92;;;1.60;;
64061;SDS011;50308;47.438;-1.528;2023-07-13T10:43:28;4.35;;;2.10;;
64061;SDS011;50308;47.438;-1.528;2023-07-13T10:46:06;4.43;;;2.20;;
64061;SDS011;50308;47.438;-1.528;2023-07-13T10:48:35;2.97;;;1.52;;
64061;SDS011;50308;47.438;-1.528;2023-07-13T10:51:03;5.85;;;2.13;;
64061;SDS011;50308;47.438;-1.528;2023-07-13T10:53:35;5.82;;;1.85;;
64061;SDS011;50308;47.438;-1.528;2023-07-13T11:01:53;6.95;;;1.88;;
64061;SDS011;50308;47.438;-1.528;2023-07-13T11:04:25;3.90;;;1.85;;
64061;SDS011;50308;47.438;-1.528;2023-07-13T11:06:58;3.53;;;1.83;;
64061;SDS011;50308;47.438;-1.528;2023-07-13T11:09:39;4.82;;;1.90;;
64061;SDS011;50308;47.438;-1.528;2023-07-13T11:20:19;4.50;;;1.70;;
64061;SDS011;50308;47.438;-1.528;2023-07-13T11:22:52;4.10;;;1.77;;
64061;SDS011;50308;47.438;-1.528;2023-07-13T11:25:43;6.35;;;2.47;;
64061;SDS011;50308;47.438;-1.528;2023-07-13T11:30:43;4.15;;;1.40;;
64061;SDS011;50308;47.438;-1.528;2023-07-13T11:33:10;5.28;;;1.45;;
64061;SDS011;50308;47.438;-1.528;2023-07-13T11:38:30;3.50;;;1.73;;
64061;SDS011;50308;47.438;-1.528;2023-07-13T11:41:16;4.47;;;1.45;;
64061;SDS011;50308;47.438;-1.528;2023-07-13T11:43:50;3.38;;;1.60;;
64061;SDS011;50308;47.438;-1.528;2023-07-13T11:46:23;4.95;;;1.73;;
64061;SDS011;50308;47.438;-1.528;2023-07-13T11:48:51;5.18;;;1.50;;
64061;SDS011;50308;47.438;-1.528;2023-07-13T11:51:28;3.60;;;1.17;;
64061;SDS011;50308;47.438;-1.528;2023-07-13T11:53:57;4.85;;;1.40;;
64061;SDS011;50308;47.438;-1.528;2023-07-13T11:56:27;5.15;;;1.42;;
64061;SDS011;50308;47.438;-1.528;2023-07-13T11:58:54;5.25;;;2.42;;
64061;SDS011;50308;47.438;-1.528;2023-07-13T12:01:23;3.42;;;1.60;;
64061;SDS011;50308;47.438;-1.528;2023-07-13T12:03:52;3.75;;;1.50;;
64061;SDS011;50308;47.438;-1.528;2023-07-13T12:06:24;7.82;;;1.77;;
64061;SDS011;50308;47.438;-1.528;2023-07-13T12:08:57;2.08;;;1.17;;
64061;SDS011;50308;47.438;-1.528;2023-07-13T12:11:25;2.50;;;1.30;;
64061;SDS011;50308;47.438;-1.528;2023-07-13T12:13:52;4.20;;;1.40;;
64061;SDS011;50308;47.438;-1.528;2023-07-13T12:18:53;2.60;;;1.30;;
64061;SDS011;50308;47.438;-1.528;2023-07-13T12:21:22;3.00;;;1.42;;
64061;SDS011;50308;47.438;-1.528;2023-07-13T12:23:53;3.97;;;1.20;;
64061;SDS011;50308;47.438;-1.528;2023-07-13T12:26:18;2.97;;;1.20;;
64061;SDS011;50308;47.438;-1.528;2023-07-13T12:28:49;2.47;;;1.40;;
64061;SDS011;50308;47.438;-1.528;2023-07-13T12:34:23;3.53;;;1.42;;
64061;SDS011;50308;47.438;-1.528;2023-07-13T12:36:55;4.57;;;1.40;;
64061;SDS011;50308;47.438;-1.528;2023-07-13T12:42:13;2.53;;;1.65;;
64061;SDS011;50308;47.438;-1.528;2023-07-13T12:47:23;1.73;;;1.20;;
64061;SDS011;50308;47.438;-1.528;2023-07-13T12:49:50;3.35;;;1.48;;
64061;SDS011;50308;47.438;-1.528;2023-07-13T12:52:27;9.88;;;2.28;;
64061;SDS011;50308;47.438;-1.528;2023-07-13T12:55:03;1.33;;;1.10;;
64061;SDS011;50308;47.438;-1.528;2023-07-13T12:57:58;2.20;;;1.38;;
64061;SDS011;50308;47.438;-1.528;2023-07-13T13:00:29;2.03;;;1.48;;
64061;SDS011;50308;47.438;-1.528;2023-07-13T13:03:21;1.65;;;1.10;;
64061;SDS011;50308;47.438;-1.528;2023-07-13T13:08:32;2.65;;;1.40;;
64061;SDS011;50308;47.438;-1.528;2023-07-13T13:10:59;2.67;;;1.57;;
64061;SDS011;50308;47.438;-1.528;2023-07-13T13:13:27;1.80;;;1.20;;
64061;SDS011;50308;47.438;-1.528;2023-07-13T13:15:53;3.70;;;1.45;;
64061;SDS011;50308;47.438;-1.528;2023-07-13T13:18:20;3.70;;;1.98;;
64061;SDS011;50308;47.438;-1.528;2023-07-13T13:20:47;1.92;;;1.50;;
64061;SDS011;50308;47.438;-1.528;2023-07-13T13:23:15;2.67;;;1.67;;
64061;SDS011;50308;47.438;-1.528;2023-07-13T13:25:46;2.30;;;1.40;;
64061;SDS011;50308;47.438;-1.528;2023-07-13T13:28:15;2.65;;;0.98;;
64061;SDS011;50308;47.438;-1.528;2023-07-13T13:30:43;4.38;;;1.67;;
64061;SDS011;50308;47.438;-1.528;2023-07-13T13:33:11;3.13;;;1.55;;
64061;SDS011;50308;47.438;-1.528;2023-07-13T13:35:39;2.40;;;1.23;;
64061;SDS011;50308;47.438;-1.528;2023-07-13T13:38:16;5.38;;;1.95;;
64061;SDS011;50308;47.438;-1.528;2023-07-13T13:40:46;5.43;;;2.38;;
64061;SDS011;50308;47.438;-1.528;2023-07-13T13:43:15;6.78;;;1.77;;
64061;SDS011;50308;47.438;-1.528;2023-07-13T13:45:43;4.00;;;1.17;;
64061;SDS011;50308;47.438;-1.528;2023-07-13T13:48:14;5.25;;;2.00;;
64061;SDS011;50308;47.438;-1.528;2023-07-13T13:50:42;1.92;;;1.30;;
64061;SDS011;50308;47.438;-1.528;2023-07-13T13:53:12;2.85;;;1.35;;
64061;SDS011;50308;47.438;-1.528;2023-07-13T13:55:38;2.80;;;1.50;;
64061;SDS011;50308;47.438;-1.528;2023-07-13T13:58:09;2.97;;;1.20;;
64061;SDS011;50308;47.438;-1.528;2023-07-13T14:00:36;3.50;;;1.73;;
64061;SDS011;50308;47.438;-1.528;2023-07-13T14:03:03;3.75;;;1.58;;
64061;SDS011;50308;47.438;-1.528;2023-07-13T14:05:29;3.35;;;1.65;;
64061;SDS011;50308;47.438;-1.528;2023-07-13T14:07:55;6.22;;;2.22;;
64061;SDS011;50308;47.438;-1.528;2023-07-13T14:10:22;2.78;;;1.52;;
64061;SDS011;50308;47.438;-1.528;2023-07-13T14:12:50;3.13;;;1.52;;
64061;SDS011;50308;47.438;-1.528;2023-07-13T14:15:20;6.03;;;1.93;;
64061;SDS011;50308;47.438;-1.528;2023-07-13T14:17:52;4.30;;;1.70;;
64061;SDS011;50308;47.438;-1.528;2023-07-13T14:20:19;4.85;;;1.77;;
64061;SDS011;50308;47.438;-1.528;2023-07-13T14:22:49;3.70;;;1.50;;
64061;SDS011;50308;47.438;-1.528;2023-07-13T14:25:16;2.50;;;1.40;;
64061;SDS011;50308;47.438;-1.528;2023-07-13T14:27:43;3.70;;;1.50;;
64061;SDS011;50308;47.438;-1.528;2023-07-13T14:30:15;3.45;;;1.50;;
64061;SDS011;50308;47.438;-1.528;2023-07-13T14:32:43;3.88;;;1.48;;
64061;SDS011;50308;47.438;-1.528;2023-07-13T14:35:13;3.22;;;1.52;;
64061;SDS011;50308;47.438;-1.528;2023-07-13T14:37:41;2.75;;;1.52;;
64061;SDS011;50308;47.438;-1.528;2023-07-13T14:42:34;3.25;;;1.58;;
64061;SDS011;50308;47.438;-1.528;2023-07-13T14:45:00;3.45;;;1.60;;
64061;SDS011;50308;47.438;-1.528;2023-07-13T14:47:26;4.20;;;1.80;;
64061;SDS011;50308;47.438;-1.528;2023-07-13T14:49:52;4.38;;;1.90;;
64061;SDS011;50308;47.438;-1.528;2023-07-13T14:52:18;4.40;;;1.70;;
64061;SDS011;50308;47.438;-1.528;2023-07-13T14:54:46;4.03;;;1.45;;
64061;SDS011;50308;47.438;-1.528;2023-07-13T14:57:13;4.97;;;1.98;;
64061;SDS011;50308;47.438;-1.528;2023-07-13T14:59:41;4.72;;;2.15;;
64061;SDS011;50308;47.438;-1.528;2023-07-13T15:02:30;3.53;;;2.08;;
64061;SDS011;50308;47.438;-1.528;2023-07-13T15:05:05;3.20;;;2.10;;
64061;SDS011;50308;47.438;-1.528;2023-07-13T15:07:43;4.38;;;1.95;;
64061;SDS011;50308;47.438;-1.528;2023-07-13T15:10:22;4.95;;;2.08;;
64061;SDS011;50308;47.438;-1.528;2023-07-13T15:12:52;3.25;;;1.73;;
64061;SDS011;50308;47.438;-1.528;2023-07-13T15:15:23;3.60;;;2.00;;
64061;SDS011;50308;47.438;-1.528;2023-07-13T15:17:49;4.07;;;1.75;;
64061;SDS011;50308;47.438;-1.528;2023-07-13T15:20:34;2.83;;;1.92;;
64061;SDS011;50308;47.438;-1.528;2023-07-13T15:23:01;2.33;;;1.63;;
64061;SDS011;50308;47.438;-1.528;2023-07-13T15:25:28;5.07;;;1.88;;
64061;SDS011;50308;47.438;-1.528;2023-07-13T15:27:56;4.93;;;2.00;;
64061;SDS011;50308;47.438;-1.528;2023-07-13T15:30:26;3.78;;;1.83;;
64061;SDS011;50308;47.438;-1.528;2023-07-13T15:32:55;4.18;;;1.60;;
64061;SDS011;50308;47.438;-1.528;2023-07-13T15:35:26;2.97;;;1.63;;